Details for Ryanair at LICJ




Go Back


Latest METAR
Local Time

LICJ 250450Z 15005KT CAVOK 16/13 Q1016

25/05/2018, 07:09:05

Description
Results
Ryanair Logo
Number of Pilots based at LICJ
0 Pilots Based here
Number of Ryanair Flights Departed from LICJ
3 Flights Departed
Number of Ryanair Flights Arrived at LICJ
3 Flights Arrived
Number of Ryanair Schedules Departing from LICJ
54 Schedules
Number of Ryanair Schedules Arriving at LICJ
55 Schedules
Number of Ryanair Schedules Departing from LICJ availible today
25 Schedules Today
Number of Ryanair Schedules Arriving at LICJ availible today
24 Schedules Today
Average Landing Rate at LICJ
-159 fpm
Ryanair Average Landing Rate at LICJ
-197 fpm
Total Fuel Purchased at LICJ by Ryanair
14,025.98 kgs / 30,921.68 lbs

Pilots Based at LICJ


Pilot ID
Pilot Name
Pilot Rank
No. of Flights
No. of Flying Hours
There are no pilots assigned to this hub!   Will you be the first?
Content